createdAt,value
2023-04-12T00:02:55.025Z,100425.38
2023-04-12T00:07:58.122Z,100403.19
2023-04-12T00:13:02.422Z,100405.13
2023-04-12T00:18:05.522Z,100391.97
2023-04-12T00:23:09.726Z,100374.84
2023-04-12T00:28:13.814Z,100334.69
2023-04-12T00:33:16.380Z,100347.00
2023-04-12T00:38:20.096Z,100342.53
2023-04-12T00:43:27.554Z,100327.22
2023-04-12T00:48:31.704Z,100326.75
2023-04-12T00:53:34.950Z,100304.22
2023-04-12T00:58:39.481Z,100303.00
2023-04-12T01:03:43.028Z,100284.97
2023-04-12T01:08:55.930Z,100270.59
2023-04-12T01:14:07.921Z,100263.25
2023-04-12T01:19:35.093Z,100254.94
2023-04-12T01:24:48.823Z,100239.16
2023-04-12T01:29:52.850Z,100234.19
2023-04-12T01:34:56.627Z,100208.44
2023-04-12T01:40:00.169Z,100206.72
2023-04-12T01:45:05.001Z,100195.41
2023-04-12T01:50:15.548Z,100176.88
2023-04-12T01:55:21.901Z,100162.56
2023-04-12T02:00:26.868Z,100150.38
2023-04-12T02:05:29.480Z,100136.31
2023-04-12T02:10:33.184Z,100121.78
2023-04-12T02:15:38.478Z,100107.91
2023-04-12T02:20:43.716Z,100090.22
2023-04-12T02:25:46.622Z,100085.88
2023-04-12T02:30:55.011Z,100077.69
2023-04-12T02:36:02.418Z,100068.19
2023-04-12T02:41:06.054Z,100039.69
2023-04-12T02:46:13.553Z,100043.66
2023-04-12T02:51:23.216Z,100018.50
2023-04-12T02:56:26.870Z,99989.19
2023-04-12T03:01:39.669Z,99974.75
2023-04-12T03:07:00.496Z,99951.19
2023-04-12T03:12:11.918Z,99939.75
2023-04-12T03:17:24.622Z,99932.41
2023-04-12T03:22:29.091Z,99917.38
2023-04-12T03:27:35.323Z,99914.88
2023-04-12T03:32:39.865Z,99872.06
2023-04-12T03:37:44.898Z,99889.25
2023-04-12T03:42:49.097Z,99856.19
2023-04-12T03:47:53.068Z,99857.41
2023-04-12T03:52:56.703Z,99832.16
2023-04-12T03:58:05.137Z,99825.88
2023-04-12T04:03:15.299Z,99828.75
2023-04-12T04:08:28.971Z,99805.91
2023-04-12T04:13:31.986Z,99798.69
2023-04-12T04:18:40.348Z,99782.84
2023-04-12T04:23:47.757Z,99787.19
2023-04-12T04:28:51.664Z,99777.13
2023-04-12T04:33:59.666Z,99764.38
2023-04-12T04:39:06.392Z,99762.22
2023-04-12T04:44:14.288Z,99761.34
2023-04-12T04:49:45.693Z,99749.25
2023-04-12T04:54:58.773Z,99745.28
2023-04-12T05:00:11.345Z,99741.25
2023-04-12T05:05:17.423Z,99736.19
2023-04-12T05:10:21.993Z,99732.69
2023-04-12T05:15:24.914Z,99718.78
2023-04-12T05:20:29.380Z,99709.22
2023-04-12T05:25:32.961Z,99701.69
2023-04-12T05:30:40.878Z,99688.66
2023-04-12T05:35:47.037Z,99671.00
2023-04-12T05:40:50.193Z,99672.56
2023-04-12T05:45:57.571Z,99668.41
2023-04-12T05:51:04.880Z,99650.44
2023-04-12T05:56:09.142Z,99649.03
2023-04-12T06:01:11.842Z,99648.44
2023-04-12T06:06:16.261Z,99640.78
2023-04-12T06:11:19.082Z,99640.25
2023-04-12T06:16:21.850Z,99635.72
2023-04-12T06:21:26.444Z,99630.22
2023-04-12T06:26:37.412Z,99621.31
2023-04-12T06:31:42.398Z,99607.97
2023-04-12T06:36:48.537Z,99576.44
2023-04-12T06:41:53.800Z,99601.00
2023-04-12T06:46:57.483Z,99589.00
2023-04-12T06:52:01.402Z,99583.44
2023-04-12T06:57:04.211Z,99572.09
2023-04-12T07:02:07.687Z,99567.09
2023-04-12T07:07:11.740Z,99559.03
2023-04-12T07:12:14.626Z,99559.47
2023-04-12T07:17:17.318Z,99560.19
2023-04-12T07:22:21.277Z,99540.16
2023-04-12T07:27:23.850Z,99533.34
2023-04-12T07:32:27.314Z,99533.66
2023-04-12T07:37:31.398Z,99520.00
2023-04-12T07:42:33.966Z,99518.69
2023-04-12T07:47:36.567Z,99516.78
2023-04-12T07:52:40.621Z,99514.25
2023-04-12T07:57:43.190Z,99517.00
2023-04-12T08:02:45.926Z,99514.94
2023-04-12T08:07:49.902Z,99522.94
2023-04-12T08:12:52.536Z,99516.28
2023-04-12T08:17:55.279Z,99515.50
2023-04-12T08:22:59.349Z,99501.38
2023-04-12T08:28:01.929Z,99498.38
2023-04-12T08:33:04.770Z,99501.69
2023-04-12T08:38:08.691Z,99492.78
2023-04-12T08:43:13.220Z,99491.28
2023-04-12T08:48:17.945Z,99488.38
2023-04-12T08:53:22.034Z,99503.13
2023-04-12T08:58:25.854Z,99511.19
2023-04-12T09:03:31.990Z,99509.94
2023-04-12T09:08:37.421Z,99496.16
2023-04-12T09:13:40.744Z,99518.47
2023-04-12T09:18:49.945Z,99498.97
2023-04-12T09:24:05.788Z,99500.38
2023-04-12T09:29:24.040Z,99491.91
2023-04-12T09:34:28.105Z,99476.41
2023-04-12T09:39:35.746Z,99480.63
2023-04-12T09:44:39.026Z,99485.72
2023-04-12T09:49:43.104Z,99451.44
2023-04-12T09:54:49.025Z,99485.28
2023-04-12T09:59:53.438Z,99480.16
2023-04-12T10:04:56.445Z,99475.28
2023-04-12T10:10:04.037Z,99498.16
2023-04-12T10:15:12.658Z,99489.66
2023-04-12T10:20:16.783Z,99506.09
2023-04-12T10:25:22.566Z,99506.91
2023-04-12T10:30:27.069Z,99503.03
2023-04-12T10:35:30.407Z,99513.91
2023-04-12T10:40:35.548Z,99493.00
2023-04-12T10:45:39.145Z,99522.00
2023-04-12T10:50:42.132Z,99512.94
2023-04-12T10:55:46.865Z,99508.97
2023-04-12T11:01:13.664Z,99494.84
2023-04-12T11:06:26.998Z,99483.69
2023-04-12T11:11:50.948Z,99490.75
2023-04-12T11:17:22.677Z,99503.09
2023-04-12T11:22:28.622Z,99513.94
2023-04-12T11:27:34.331Z,99513.72
2023-04-12T11:32:40.291Z,99515.22
2023-04-12T11:37:43.209Z,99522.50
2023-04-12T11:42:47.463Z,99516.22
2023-04-12T11:47:52.081Z,99501.97
2023-04-12T11:52:54.670Z,99502.66
2023-04-12T11:58:00.839Z,99486.91
2023-04-12T12:03:07.791Z,99486.28
2023-04-12T12:08:11.854Z,99491.97
2023-04-12T12:13:17.337Z,99491.00
2023-04-12T12:18:19.915Z,99487.03
2023-04-12T12:23:33.152Z,99493.59
2023-04-12T12:28:39.626Z,99475.25
2023-04-12T12:33:46.443Z,99492.28
2023-04-12T12:38:54.520Z,99491.47
2023-04-12T12:43:59.090Z,99467.88
2023-04-12T12:49:01.834Z,99485.16
2023-04-12T12:54:04.749Z,99475.97
2023-04-12T12:59:09.030Z,99469.19
2023-04-12T13:04:11.923Z,99467.72
2023-04-12T13:09:14.894Z,99466.72
2023-04-12T13:14:19.515Z,99504.16
2023-04-12T13:19:22.654Z,99517.28
2023-04-12T13:24:25.692Z,99535.50
2023-04-12T13:29:30.193Z,99526.84
2023-04-12T13:34:33.178Z,99520.59
2023-04-12T13:39:36.279Z,99531.50
2023-04-12T13:44:40.615Z,99529.81
2023-04-12T13:49:43.324Z,99532.44
2023-04-12T13:54:46.142Z,99542.88
2023-04-12T13:59:50.064Z,99548.31
2023-04-12T14:04:55.130Z,99561.72
2023-04-12T14:09:57.847Z,99570.66
2023-04-12T14:15:02.544Z,99573.28
2023-04-12T14:20:07.895Z,99582.06
2023-04-12T14:25:11.657Z,99575.47
2023-04-12T14:30:18.379Z,99569.28
2023-04-12T14:35:21.640Z,99567.25
2023-04-12T14:40:24.801Z,99511.59
2023-04-12T14:45:28.894Z,99590.31
2023-04-12T14:50:31.805Z,99584.50
2023-04-12T14:55:34.881Z,99619.00
2023-04-12T15:00:39.207Z,99618.16
2023-04-12T15:05:41.889Z,99613.22
2023-04-12T15:10:44.550Z,99603.91
2023-04-12T15:15:48.468Z,99606.97
2023-04-12T15:20:51.416Z,99603.94
2023-04-12T15:25:59.820Z,99577.44
2023-04-12T15:31:04.420Z,99601.06
2023-04-12T15:36:07.617Z,99606.28
2023-04-12T15:41:10.435Z,99616.75
2023-04-12T15:46:15.494Z,99621.38
2023-04-12T15:51:18.290Z,99630.69
2023-04-12T15:56:24.215Z,99634.66
2023-04-12T16:01:29.281Z,99653.28
2023-04-12T16:06:34.667Z,99665.25
2023-04-12T16:11:37.238Z,99699.72
2023-04-12T16:16:41.273Z,99701.94
2023-04-12T16:21:44.729Z,99690.69
2023-04-12T16:26:48.006Z,99674.94
2023-04-12T16:31:52.569Z,99650.75
2023-04-12T16:36:55.682Z,99636.81
2023-04-12T16:41:58.320Z,99619.03
2023-04-12T16:47:02.383Z,99616.22
2023-04-12T16:52:05.053Z,99611.47
2023-04-12T16:57:07.608Z,99615.84
2023-04-12T17:02:12.525Z,99612.03
2023-04-12T17:07:15.141Z,99600.22
2023-04-12T17:12:17.657Z,99614.22
2023-04-12T17:17:21.573Z,99614.91
2023-04-12T17:22:24.225Z,99607.94
2023-04-12T17:27:27.531Z,99621.06
2023-04-12T17:32:31.964Z,99614.97
2023-04-12T17:37:35.635Z,99617.41
2023-04-12T17:42:38.698Z,99619.53
2023-04-12T17:47:43.672Z,99626.50
2023-04-12T17:52:46.803Z,99622.56
2023-04-12T17:57:49.894Z,99604.69
2023-04-12T18:02:54.374Z,99614.19
2023-04-12T18:07:58.125Z,99614.09
2023-04-12T18:13:00.888Z,99609.78
2023-04-12T18:18:05.430Z,99611.06
2023-04-12T18:23:08.222Z,99609.97
2023-04-12T18:28:10.850Z,99622.63
2023-04-12T18:33:16.934Z,99620.97
2023-04-12T18:38:20.128Z,99623.75
2023-04-12T18:43:23.059Z,99618.22
2023-04-12T18:48:28.268Z,99621.22
2023-04-12T18:53:31.693Z,99622.63
2023-04-12T19:03:41.990Z,99615.59
2023-04-12T19:08:45.270Z,99606.81
2023-04-12T19:13:48.793Z,99612.22
2023-04-12T19:18:53.321Z,99625.66
2023-04-12T19:23:57.061Z,99630.59
2023-04-12T19:29:01.079Z,99548.47
2023-04-12T19:34:06.843Z,99628.22
2023-04-12T19:39:10.180Z,99628.81
2023-04-12T19:44:14.097Z,99624.97
2023-04-12T19:49:18.673Z,99623.31
2023-04-12T19:54:23.865Z,99625.44
2023-04-12T19:59:30.877Z,99635.78
2023-04-12T20:04:36.168Z,99615.63
2023-04-12T20:09:40.085Z,99624.94
2023-04-12T20:14:43.098Z,99623.06
2023-04-12T20:19:47.743Z,99627.38
2023-04-12T20:24:53.449Z,99620.03
2023-04-12T20:29:56.966Z,99621.13
2023-04-12T20:35:02.704Z,99615.13
2023-04-12T20:40:09.302Z,99604.59
2023-04-12T20:45:13.368Z,99609.63
2023-04-12T20:50:18.825Z,99609.53
2023-04-12T20:55:25.503Z,99595.72
2023-04-12T21:00:29.818Z,99596.09
2023-04-12T21:05:36.119Z,99589.50
2023-04-12T21:10:41.051Z,99579.31
2023-04-12T21:15:44.768Z,99577.50
2023-04-12T21:20:49.775Z,99576.31
2023-04-12T21:25:52.780Z,99572.94
2023-04-12T21:30:56.597Z,99565.25
2023-04-12T21:36:00.622Z,99581.78
2023-04-12T21:41:07.177Z,99551.97
2023-04-12T21:46:09.788Z,99548.38
2023-04-12T21:51:13.784Z,99546.56
2023-04-12T21:56:16.334Z,99553.75
2023-04-12T22:01:19.349Z,99533.38
2023-04-12T22:06:23.328Z,99525.25
2023-04-12T22:11:25.974Z,99519.97
2023-04-12T22:16:28.506Z,99512.53
2023-04-12T22:21:33.330Z,99510.59
2023-04-12T22:26:35.906Z,99501.38
2023-04-12T22:31:39.327Z,99491.53
2023-04-12T22:36:44.863Z,99480.41
2023-04-12T22:41:49.683Z,99476.56
2023-04-12T22:46:54.375Z,99475.59
2023-04-12T22:51:58.432Z,99478.94
2023-04-12T22:57:02.275Z,99470.69
2023-04-12T23:02:05.003Z,99462.31
2023-04-12T23:07:09.478Z,99461.59
2023-04-12T23:12:12.409Z,99453.88
2023-04-12T23:17:16.725Z,99434.84
2023-04-12T23:22:48.381Z,99444.06
2023-04-12T23:27:56.286Z,99443.00
2023-04-12T23:32:59.979Z,99421.91
2023-04-12T23:38:03.900Z,99407.03
2023-04-12T23:43:08.427Z,99397.22
2023-04-12T23:48:11.565Z,99394.19
2023-04-12T23:53:16.259Z,99393.97
2023-04-12T23:58:19.364Z,99397.31
